Time;durP1;ratioP1;P1;durP2;ratioP2;P2;SDS_P1;SDS_P2;PMS_P1;PMS_P2;Temp;Humidity;BMP_temperature;BMP_pressure;BME280_temperature;BME280_humidity;BME280_pressure;Samples;Min_cycle;Max_cycle;Signal;HPM_P1;HPM_P2
2023/04/30 00:00:49;;;;;;;13.90;0.95;;;9.60;99.90;;;;;;4422510;32;20077;-67
2023/04/30 00:03:14;;;;;;;0.88;0.50;;;9.50;99.90;;;;;;4424264;32;20097;-68
2023/04/30 00:05:40;;;;;;;0.20;0.20;;;9.50;99.90;;;;;;4422673;32;20410;-69
2023/04/30 00:08:05;;;;;;;1.12;0.60;;;9.60;99.90;;;;;;4422975;32;20093;-69
2023/04/30 00:10:31;;;;;;;2.42;0.85;;;9.60;99.90;;;;;;4420997;32;20548;-68
2023/04/30 00:12:56;;;;;;;0.50;0.50;;;9.50;99.90;;;;;;4424090;32;20381;-68
2023/04/30 00:15:22;;;;;;;0.35;0.35;;;9.40;99.90;;;;;;4423104;32;20109;-68
2023/04/30 00:17:47;;;;;;;0.40;0.40;;;9.40;99.90;;;;;;4424806;32;20519;-69
2023/04/30 00:20:13;;;;;;;0.45;0.43;;;9.20;99.90;;;;;;4424232;32;20089;-68
2023/04/30 00:22:38;;;;;;;0.30;0.30;;;9.00;99.90;;;;;;4423314;32;20409;-67
2023/04/30 00:25:04;;;;;;;0.40;0.40;;;8.80;99.90;;;;;;4422690;32;20427;-66
2023/04/30 00:27:30;;;;;;;1.20;0.77;;;8.60;99.90;;;;;;4423909;32;20085;-69
2023/04/30 00:29:56;;;;;;;4.47;0.88;;;8.50;99.90;;;;;;4424012;32;20112;-68
2023/04/30 00:32:22;;;;;;;0.50;0.50;;;8.40;99.90;;;;;;4425527;32;20076;-68
2023/04/30 00:34:47;;;;;;;0.75;0.65;;;8.30;99.90;;;;;;4424718;32;20121;-68
2023/04/30 00:37:13;;;;;;;7.15;2.05;;;8.30;99.90;;;;;;4423763;32;20100;-68
2023/04/30 00:39:38;;;;;;;0.50;0.50;;;8.40;99.90;;;;;;4425294;32;21338;-68
2023/04/30 00:42:04;;;;;;;2.05;0.88;;;8.20;99.90;;;;;;4421724;32;20438;-68
2023/04/30 00:44:29;;;;;;;1.35;1.25;;;8.20;99.90;;;;;;4424976;32;20105;-67
2023/04/30 00:46:54;;;;;;;0.40;0.40;;;8.20;99.90;;;;;;4423395;32;20588;-68
2023/04/30 00:49:20;;;;;;;0.40;0.40;;;8.10;99.90;;;;;;4425859;32;20069;-68
2023/04/30 00:51:46;;;;;;;0.32;0.32;;;8.00;99.90;;;;;;4426296;32;20060;-68
2023/04/30 00:54:11;;;;;;;0.50;0.50;;;8.00;99.90;;;;;;4422543;32;20161;-67
2023/04/30 00:56:37;;;;;;;0.60;0.60;;;8.00;99.90;;;;;;4425338;32;20540;-68
2023/04/30 00:59:02;;;;;;;2.03;0.82;;;8.10;99.90;;;;;;4424469;32;20085;-69
2023/04/30 01:01:28;;;;;;;1.80;1.50;;;8.00;99.90;;;;;;4423335;32;20097;-69
2023/04/30 01:03:54;;;;;;;0.30;0.30;;;7.70;99.90;;;;;;4421493;32;20529;-69
2023/04/30 01:06:20;;;;;;;1.17;1.08;;;7.70;99.90;;;;;;4424220;32;20074;-69
2023/04/30 01:08:47;;;;;;;0.55;0.55;;;7.70;99.90;;;;;;4424889;32;20070;-68
2023/04/30 01:11:39;;;;;;;0.43;0.43;;;7.70;99.90;;;;;;4424544;32;20151;-69
2023/04/30 01:14:15;;;;;;;0.40;0.40;;;7.90;99.90;;;;;;4412804;32;20130;-69
2023/04/30 01:16:50;;;;;;;1.20;0.82;;;8.10;99.90;;;;;;4425190;32;20196;-69
2023/04/30 01:19:51;;;;;;;4.28;1.73;;;8.10;99.90;;;;;;4423376;32;20488;-68
2023/04/30 01:22:27;;;;;;;1.52;0.52;;;8.20;99.90;;;;;;4407616;32;20132;-69
2023/04/30 01:25:15;;;;;;;2.35;0.85;;;8.20;99.90;;;;;;4424771;32;20545;-69
2023/04/30 01:28:02;;;;;;;0.55;0.55;;;8.20;99.90;;;;;;4413134;32;20077;-69
2023/04/30 01:30:30;;;;;;;0.70;0.70;;;8.20;99.90;;;;;;4411312;32;20168;-69
2023/04/30 01:32:56;;;;;;;0.47;0.47;;;8.10;99.90;;;;;;4422850;32;20180;-69
2023/04/30 01:35:32;;;;;;;0.40;0.40;;;8.10;99.90;;;;;;4423236;32;20073;-70
2023/04/30 01:38:26;;;;;;;0.50;0.50;;;8.10;99.90;;;;;;4422020;32;20108;-67
2023/04/30 01:40:58;;;;;;;0.50;0.50;;;8.20;99.90;;;;;;4412981;32;20487;-68
2023/04/30 01:44:03;;;;;;;0.30;0.30;;;8.10;99.90;;;;;;4421718;32;20108;-67
2023/04/30 01:46:29;;;;;;;11.70;0.85;;;8.30;99.90;;;;;;4404096;32;20181;-67
2023/04/30 01:49:03;;;;;;;3.83;1.77;;;8.20;99.90;;;;;;4419984;32;20097;-68
2023/04/30 01:51:39;;;;;;;0.43;0.43;;;8.10;99.90;;;;;;4422535;32;20057;-68
2023/04/30 01:54:14;;;;;;;0.95;0.75;;;7.80;99.90;;;;;;4423091;32;20085;-67
2023/04/30 01:56:45;;;;;;;0.52;0.52;;;7.70;99.90;;;;;;4419492;32;20062;-67
2023/04/30 01:59:13;;;;;;;0.40;0.40;;;7.70;99.90;;;;;;4420365;32;20438;-68
2023/04/30 02:01:39;;;;;;;1.17;0.57;;;7.70;99.90;;;;;;4421690;32;20188;-67
2023/04/30 02:04:04;;;;;;;0.30;0.30;;;7.70;99.90;;;;;;4422132;32;20124;-67
2023/04/30 02:06:30;;;;;;;0.40;0.40;;;7.70;99.90;;;;;;4424323;32;20073;-68
2023/04/30 02:09:01;;;;;;;0.93;0.85;;;7.70;99.90;;;;;;4425272;32;20106;-68
2023/04/30 02:11:26;;;;;;;0.40;0.40;;;7.60;99.90;;;;;;4423485;32;20082;-68
2023/04/30 02:13:52;;;;;;;0.40;0.40;;;7.50;99.90;;;;;;4410704;32;20493;-68
2023/04/30 02:16:17;;;;;;;1.15;0.62;;;7.70;99.90;;;;;;4424541;32;20096;-66
2023/04/30 02:18:44;;;;;;;0.52;0.52;;;7.80;99.90;;;;;;4424274;32;20065;-68
2023/04/30 02:21:09;;;;;;;2.03;1.40;;;7.70;99.90;;;;;;4422009;32;20511;-67
2023/04/30 02:23:35;;;;;;;0.30;0.30;;;7.50;99.90;;;;;;4424734;32;20081;-68
2023/04/30 02:26:01;;;;;;;0.40;0.40;;;7.40;99.90;;;;;;4425522;32;20398;-68
2023/04/30 02:28:27;;;;;;;11.40;1.35;;;7.20;99.90;;;;;;4423083;32;20070;-68
2023/04/30 02:30:53;;;;;;;0.73;0.60;;;7.30;99.90;;;;;;4422037;32;20090;-67
2023/04/30 02:33:18;;;;;;;6.80;2.05;;;7.30;99.90;;;;;;4408963;32;20089;-68
2023/04/30 02:35:43;;;;;;;26.45;0.73;;;7.40;99.90;;;;;;4422318;32;20405;-67
2023/04/30 02:38:09;;;;;;;0.40;0.40;;;7.40;99.90;;;;;;4421190;32;20061;-67
2023/04/30 02:40:34;;;;;;;0.40;0.40;;;7.30;99.90;;;;;;4420814;32;20086;-67
2023/04/30 02:43:00;;;;;;;0.40;0.40;;;7.40;99.90;;;;;;4422360;32;20629;-68
2023/04/30 02:45:26;;;;;;;0.43;0.43;;;7.30;99.90;;;;;;4422240;32;20179;-68
2023/04/30 02:47:51;;;;;;;0.40;0.40;;;7.20;99.90;;;;;;4421918;32;20469;-66
2023/04/30 02:50:16;;;;;;;0.75;0.75;;;7.10;99.90;;;;;;4422668;32;20069;-68
2023/04/30 02:52:44;;;;;;;0.52;0.52;;;7.00;99.90;;;;;;4423267;32;20570;-68
2023/04/30 02:55:10;;;;;;;6.70;1.08;;;6.90;99.90;;;;;;4422255;32;20645;-68
2023/04/30 02:57:35;;;;;;;0.47;0.43;;;6.90;99.90;;;;;;4424464;32;20122;-68
2023/04/30 03:00:01;;;;;;;0.40;0.40;;;6.80;99.90;;;;;;4397550;32;20101;-67
2023/04/30 03:02:27;;;;;;;0.30;0.30;;;6.80;99.90;;;;;;4423366;32;20085;-68
2023/04/30 03:04:52;;;;;;;1.85;1.42;;;6.80;99.90;;;;;;4422188;32;20113;-68
2023/04/30 03:07:18;;;;;;;45.10;1.25;;;6.80;99.90;;;;;;4410921;32;20101;-66
2023/04/30 03:09:43;;;;;;;0.40;0.40;;;6.80;99.90;;;;;;4423740;32;20544;-66
2023/04/30 03:12:09;;;;;;;1.65;0.75;;;6.80;99.90;;;;;;4425612;32;20212;-68
2023/04/30 03:14:34;;;;;;;1.00;0.60;;;6.70;99.90;;;;;;4424339;32;20089;-66
2023/04/30 03:17:00;;;;;;;0.50;0.50;;;6.70;99.90;;;;;;4422430;32;20504;-68
2023/04/30 03:19:25;;;;;;;0.28;0.28;;;6.60;99.90;;;;;;4409870;32;20136;-67
2023/04/30 03:21:51;;;;;;;0.30;0.30;;;6.50;99.90;;;;;;4423875;32;20065;-66
2023/04/30 03:24:18;;;;;;;0.20;0.20;;;6.50;99.90;;;;;;4423395;32;20078;-70
2023/04/30 03:26:43;;;;;;;0.30;0.30;;;6.60;99.90;;;;;;4419931;32;20093;-68
2023/04/30 03:29:08;;;;;;;0.40;0.40;;;6.60;99.90;;;;;;4422985;32;20057;-68
2023/04/30 03:31:34;;;;;;;0.30;0.30;;;6.50;99.90;;;;;;4423394;32;20120;-69
2023/04/30 03:33:59;;;;;;;0.43;0.43;;;6.40;99.90;;;;;;4423705;32;20093;-67
2023/04/30 03:36:26;;;;;;;7.32;1.02;;;6.40;99.90;;;;;;4421176;32;20539;-69
2023/04/30 03:38:51;;;;;;;2.22;1.42;;;6.40;99.90;;;;;;4408631;32;20164;-69
2023/04/30 03:41:17;;;;;;;0.55;0.55;;;6.50;99.90;;;;;;4421242;32;20129;-68
2023/04/30 03:43:43;;;;;;;1.17;0.98;;;6.40;99.90;;;;;;4410086;32;20077;-69
2023/04/30 03:46:09;;;;;;;0.77;0.77;;;6.50;99.90;;;;;;4422311;32;20074;-68
2023/04/30 03:48:34;;;;;;;1.85;1.20;;;6.30;99.90;;;;;;4421784;32;20098;-68
2023/04/30 03:51:01;;;;;;;0.40;0.40;;;6.30;99.90;;;;;;4423703;32;20185;-69
2023/04/30 03:53:26;;;;;;;0.77;0.77;;;6.30;99.90;;;;;;4423364;32;20516;-69
2023/04/30 03:55:53;;;;;;;0.40;0.40;;;6.40;99.90;;;;;;4422053;32;20124;-69
2023/04/30 03:58:19;;;;;;;0.88;0.70;;;6.40;99.90;;;;;;4423205;32;21264;-68
2023/04/30 04:00:46;;;;;;;0.40;0.40;;;6.30;99.90;;;;;;4423862;32;20466;-68
2023/04/30 04:03:13;;;;;;;2.75;1.87;;;6.40;99.90;;;;;;4423507;32;20423;-68
2023/04/30 04:05:38;;;;;;;0.30;0.30;;;6.40;99.90;;;;;;4421049;32;20194;-69
2023/04/30 04:08:05;;;;;;;1.40;0.73;;;6.30;99.90;;;;;;4422478;32;20115;-69
2023/04/30 04:10:31;;;;;;;0.30;0.30;;;6.30;99.90;;;;;;4423264;32;20120;-68
2023/04/30 04:12:57;;;;;;;0.35;0.35;;;6.30;99.90;;;;;;4424419;32;20065;-68
2023/04/30 04:15:22;;;;;;;1.02;0.93;;;6.30;99.90;;;;;;4423528;32;20494;-69
2023/04/30 04:17:48;;;;;;;0.22;0.22;;;6.40;99.90;;;;;;4422227;32;20069;-69
2023/04/30 04:20:13;;;;;;;0.40;0.40;;;6.40;99.90;;;;;;4421652;32;20088;-69
2023/04/30 04:22:39;;;;;;;0.30;0.30;;;6.30;99.90;;;;;;4424762;32;20072;-69
2023/04/30 04:25:05;;;;;;;0.37;0.37;;;6.30;99.90;;;;;;4423267;32;20124;-68
2023/04/30 04:27:31;;;;;;;0.32;0.32;;;6.40;99.90;;;;;;4408241;32;20082;-68
2023/04/30 04:29:56;;;;;;;0.50;0.50;;;6.40;99.90;;;;;;4422711;32;20081;-68
2023/04/30 04:32:22;;;;;;;0.70;0.70;;;6.40;99.90;;;;;;4423321;32;20529;-68
2023/04/30 04:34:48;;;;;;;3.10;1.00;;;6.50;99.90;;;;;;4421696;32;20085;-68
2023/04/30 04:37:14;;;;;;;0.70;0.70;;;6.50;99.90;;;;;;4422864;32;20095;-68
2023/04/30 04:39:39;;;;;;;2.55;1.02;;;6.40;99.90;;;;;;4421025;32;20065;-69
2023/04/30 04:42:05;;;;;;;0.50;0.50;;;6.30;99.90;;;;;;4423443;32;20089;-68
2023/04/30 04:44:31;;;;;;;0.40;0.40;;;6.40;99.90;;;;;;4423170;32;20077;-68
2023/04/30 04:46:56;;;;;;;2.00;0.77;;;6.40;99.90;;;;;;4408103;32;20073;-68
2023/04/30 04:49:22;;;;;;;0.50;0.50;;;6.50;99.90;;;;;;4422125;32;20081;-69
2023/04/30 04:51:47;;;;;;;1.48;1.15;;;6.50;99.90;;;;;;4423542;32;20065;-67
2023/04/30 04:54:13;;;;;;;0.37;0.37;;;6.50;99.90;;;;;;4423793;32;20090;-69
2023/04/30 04:56:38;;;;;;;2.37;1.77;;;6.50;99.90;;;;;;4423320;32;20081;-68
2023/04/30 04:59:04;;;;;;;0.45;0.45;;;6.60;99.90;;;;;;4424604;32;20081;-67
2023/04/30 05:01:29;;;;;;;0.95;0.73;;;6.60;99.90;;;;;;4426321;32;20432;-68
2023/04/30 05:03:55;;;;;;;0.40;0.40;;;6.50;99.90;;;;;;4423747;32;20127;-69
2023/04/30 05:06:20;;;;;;;0.30;0.30;;;6.60;99.90;;;;;;4423537;32;20065;-67
2023/04/30 05:08:46;;;;;;;0.35;0.35;;;6.50;99.90;;;;;;4422861;32;20823;-67
2023/04/30 05:11:11;;;;;;;0.65;0.65;;;6.60;99.90;;;;;;4422776;32;20065;-68
2023/04/30 05:13:37;;;;;;;0.40;0.40;;;6.60;99.90;;;;;;4424782;32;20090;-68
2023/04/30 05:16:02;;;;;;;0.65;0.65;;;6.60;99.90;;;;;;4424227;32;20466;-67
2023/04/30 05:18:28;;;;;;;1.48;1.37;;;6.60;99.90;;;;;;4424175;32;20161;-68
2023/04/30 05:20:53;;;;;;;0.40;0.40;;;6.60;99.90;;;;;;4424318;32;20139;-68
2023/04/30 05:23:19;;;;;;;0.90;0.60;;;6.70;99.90;;;;;;4425273;32;20071;-68
2023/04/30 05:25:45;;;;;;;3.60;1.65;;;6.70;99.90;;;;;;4425211;32;20489;-67
2023/04/30 05:28:10;;;;;;;0.50;0.50;;;6.70;99.90;;;;;;4424821;32;20468;-68
2023/04/30 05:30:36;;;;;;;0.40;0.40;;;6.70;99.90;;;;;;4423668;32;20838;-67
2023/04/30 05:33:01;;;;;;;0.60;0.60;;;6.80;99.90;;;;;;4424606;32;20410;-68
2023/04/30 05:35:27;;;;;;;5.87;0.88;;;6.90;99.90;;;;;;4422462;32;20130;-68
2023/04/30 05:37:52;;;;;;;0.40;0.40;;;7.10;99.90;;;;;;4424180;32;20085;-68
2023/04/30 05:40:18;;;;;;;0.30;0.30;;;7.00;99.90;;;;;;4422581;32;20404;-67
2023/04/30 05:42:43;;;;;;;0.30;0.30;;;7.00;99.90;;;;;;4425523;32;20073;-68
2023/04/30 05:45:11;;;;;;;0.40;0.40;;;7.10;99.90;;;;;;4426735;32;20143;-68
2023/04/30 05:47:36;;;;;;;0.32;0.32;;;7.10;99.90;;;;;;4424518;32;20093;-67
2023/04/30 05:50:02;;;;;;;0.43;0.43;;;7.10;99.90;;;;;;4426136;32;20109;-68
2023/04/30 05:52:27;;;;;;;0.50;0.50;;;7.20;99.90;;;;;;4422291;32;20062;-68
2023/04/30 05:54:53;;;;;;;5.55;0.95;;;7.20;99.90;;;;;;4422971;32;20113;-67
2023/04/30 05:57:19;;;;;;;0.52;0.52;;;7.30;99.90;;;;;;4422668;32;20543;-68
2023/04/30 05:59:44;;;;;;;11.57;1.73;;;7.30;99.90;;;;;;4423999;32;20072;-67
2023/04/30 06:02:10;;;;;;;0.30;0.30;;;7.30;99.90;;;;;;4423947;32;20477;-67
2023/04/30 06:04:35;;;;;;;0.60;0.60;;;7.40;99.90;;;;;;4425790;32;20078;-66
2023/04/30 06:07:00;;;;;;;0.40;0.40;;;7.50;99.90;;;;;;4423196;32;20077;-68
2023/04/30 06:09:26;;;;;;;0.40;0.40;;;7.60;99.90;;;;;;4422888;32;20073;-68
2023/04/30 06:11:52;;;;;;;4.97;2.35;;;7.70;99.90;;;;;;4426389;32;20112;-68
2023/04/30 06:14:18;;;;;;;4.50;1.50;;;7.80;99.90;;;;;;4422724;32;20220;-67
2023/04/30 06:16:44;;;;;;;21.00;1.00;;;7.70;99.90;;;;;;4409775;32;20552;-68
2023/04/30 06:19:10;;;;;;;0.60;0.60;;;7.80;99.90;;;;;;4424166;32;20080;-68
2023/04/30 06:21:36;;;;;;;0.57;0.57;;;7.80;99.90;;;;;;4423940;32;20093;-68
2023/04/30 06:24:02;;;;;;;0.60;0.60;;;7.90;99.90;;;;;;4422780;32;20070;-68
2023/04/30 06:26:27;;;;;;;15.52;2.90;;;8.00;99.90;;;;;;4423298;32;20105;-68
2023/04/30 06:28:53;;;;;;;0.25;0.25;;;8.00;99.90;;;;;;4424485;32;20109;-69
2023/04/30 06:31:18;;;;;;;18.52;0.73;;;8.10;99.90;;;;;;4423713;32;20073;-67
2023/04/30 06:33:44;;;;;;;0.30;0.30;;;8.10;99.90;;;;;;4408437;32;20262;-68
2023/04/30 06:36:09;;;;;;;9.85;1.23;;;8.20;99.90;;;;;;4422581;32;20056;-67
2023/04/30 06:38:35;;;;;;;0.47;0.47;;;8.30;99.90;;;;;;4423354;32;20585;-67
2023/04/30 06:41:00;;;;;;;0.62;0.62;;;8.40;99.90;;;;;;4425107;32;20156;-68
2023/04/30 06:43:26;;;;;;;12.15;1.73;;;8.50;99.90;;;;;;4422893;32;20093;-68
2023/04/30 06:45:51;;;;;;;0.73;0.60;;;8.60;99.90;;;;;;4421610;32;20097;-66
2023/04/30 06:48:17;;;;;;;0.85;0.75;;;8.50;99.90;;;;;;4421184;32;20177;-69
2023/04/30 06:50:43;;;;;;;0.30;0.30;;;8.50;99.90;;;;;;4421589;32;20098;-68
2023/04/30 06:53:12;;;;;;;6.35;0.70;;;8.50;99.90;;;;;;4424137;32;20066;-67
2023/04/30 06:55:38;;;;;;;0.30;0.30;;;8.60;99.90;;;;;;4424605;32;20069;-68
2023/04/30 06:58:05;;;;;;;1.65;1.15;;;8.60;99.90;;;;;;4424893;32;20486;-67
2023/04/30 07:00:31;;;;;;;0.50;0.50;;;8.70;99.90;;;;;;4424204;32;20816;-68
2023/04/30 07:02:59;;;;;;;34.13;1.15;;;8.70;99.90;;;;;;4422660;32;20082;-68
2023/04/30 07:05:25;;;;;;;0.40;0.40;;;8.80;99.90;;;;;;4422053;32;20078;-68
2023/04/30 07:07:51;;;;;;;0.40;0.40;;;8.80;99.90;;;;;;4410011;32;20097;-67
2023/04/30 07:10:17;;;;;;;0.43;0.43;;;8.70;99.90;;;;;;4424334;32;20070;-68
2023/04/30 07:12:43;;;;;;;1.05;0.93;;;8.70;99.90;;;;;;4424024;32;20144;-67
2023/04/30 07:15:09;;;;;;;0.50;0.50;;;8.80;99.90;;;;;;4423730;32;20536;-67
2023/04/30 07:17:34;;;;;;;0.40;0.40;;;9.00;99.90;;;;;;4421944;32;20065;-68
2023/04/30 07:20:00;;;;;;;0.32;0.32;;;8.90;99.90;;;;;;4421551;32;20066;-67
2023/04/30 07:22:26;;;;;;;0.40;0.40;;;9.00;99.90;;;;;;4423008;32;20069;-68
2023/04/30 07:24:52;;;;;;;1.35;1.00;;;9.10;99.90;;;;;;4422367;32;20193;-68
2023/04/30 07:27:17;;;;;;;15.30;0.85;;;9.10;99.90;;;;;;4421566;32;20089;-67
2023/04/30 07:29:43;;;;;;;0.50;0.50;;;9.10;99.90;;;;;;4424564;32;20072;-67
2023/04/30 07:32:08;;;;;;;1.00;0.88;;;9.10;99.90;;;;;;4422352;32;20093;-68
2023/04/30 07:34:34;;;;;;;27.70;2.33;;;9.40;99.90;;;;;;4421051;32;20073;-69
2023/04/30 07:37:00;;;;;;;0.40;0.40;;;9.40;99.90;;;;;;4422371;32;20092;-68
2023/04/30 07:39:25;;;;;;;0.50;0.50;;;9.50;99.90;;;;;;4422336;32;20081;-68
2023/04/30 07:41:51;;;;;;;0.73;0.73;;;9.60;99.90;;;;;;4422177;32;20097;-68
2023/04/30 07:44:16;;;;;;;0.88;0.88;;;9.50;99.90;;;;;;4421101;32;20080;-67
2023/04/30 07:46:42;;;;;;;0.35;0.35;;;9.40;99.90;;;;;;4421323;32;20101;-68
2023/04/30 07:49:07;;;;;;;0.40;0.40;;;9.60;99.90;;;;;;4406916;32;20097;-69
2023/04/30 07:51:33;;;;;;;0.70;0.65;;;9.90;99.90;;;;;;4422135;32;20494;-68
2023/04/30 07:53:59;;;;;;;0.40;0.40;;;10.10;99.90;;;;;;4410864;32;20089;-68
2023/04/30 07:56:25;;;;;;;0.50;0.50;;;10.20;99.90;;;;;;4408504;32;20090;-66
2023/04/30 07:58:50;;;;;;;0.50;0.50;;;10.10;99.90;;;;;;4407115;32;20533;-68
2023/04/30 08:01:16;;;;;;;0.30;0.30;;;10.10;99.90;;;;;;4422699;32;20846;-68
2023/04/30 08:03:41;;;;;;;6.12;1.75;;;10.00;99.90;;;;;;4423319;32;20069;-67
2023/04/30 08:06:07;;;;;;;1.85;1.12;;;10.20;99.90;;;;;;4422352;32;20069;-67
2023/04/30 08:08:32;;;;;;;0.52;0.50;;;10.40;99.90;;;;;;4424078;32;20119;-68
2023/04/30 08:10:58;;;;;;;0.40;0.40;;;10.50;99.90;;;;;;4420608;32;20148;-68
2023/04/30 08:13:23;;;;;;;1.62;1.00;;;10.70;99.90;;;;;;4422541;32;20104;-68
2023/04/30 08:15:48;;;;;;;0.88;0.88;;;10.70;99.90;;;;;;4422192;32;20086;-68
2023/04/30 08:18:15;;;;;;;0.40;0.40;;;10.80;99.90;;;;;;4423464;32;20124;-68
2023/04/30 08:20:40;;;;;;;0.37;0.37;;;10.80;99.90;;;;;;4420882;32;21220;-67
2023/04/30 08:23:05;;;;;;;0.30;0.30;;;10.90;99.90;;;;;;4423258;32;20072;-68
2023/04/30 08:25:31;;;;;;;0.50;0.50;;;10.70;99.90;;;;;;4423346;32;20069;-68
2023/04/30 08:27:57;;;;;;;1.05;0.93;;;10.80;99.90;;;;;;4422458;32;20085;-68
2023/04/30 08:30:22;;;;;;;0.62;0.62;;;10.90;99.90;;;;;;4418526;32;20113;-66
2023/04/30 08:32:48;;;;;;;0.52;0.52;;;11.00;99.90;;;;;;4420912;32;20069;-67
2023/04/30 08:35:15;;;;;;;0.40;0.40;;;11.10;99.90;;;;;;4424777;32;20100;-66
2023/04/30 08:37:41;;;;;;;0.50;0.50;;;11.10;99.90;;;;;;4421326;32;20131;-67
2023/04/30 08:40:08;;;;;;;0.40;0.40;;;11.10;99.90;;;;;;4424595;32;20077;-67
2023/04/30 08:42:36;;;;;;;4.85;1.67;;;11.00;99.90;;;;;;4425918;32;20082;-68
2023/04/30 08:45:03;;;;;;;0.40;0.40;;;11.00;99.90;;;;;;4423843;32;20153;-68
2023/04/30 08:47:29;;;;;;;0.32;0.32;;;11.10;99.90;;;;;;4425209;32;20074;-68
2023/04/30 08:49:55;;;;;;;0.40;0.40;;;11.30;99.90;;;;;;4423922;32;20284;-66
2023/04/30 08:52:21;;;;;;;0.40;0.40;;;10.90;99.90;;;;;;4424164;32;20496;-66
2023/04/30 08:54:47;;;;;;;0.32;0.32;;;11.00;99.90;;;;;;4409570;32;20078;-67
2023/04/30 08:57:13;;;;;;;0.45;0.45;;;11.10;99.90;;;;;;4423546;32;20073;-67
2023/04/30 08:59:38;;;;;;;0.57;0.57;;;11.20;99.90;;;;;;4422032;32;20134;-69
2023/04/30 09:02:04;;;;;;;0.40;0.40;;;11.40;99.90;;;;;;4423906;32;20489;-67
2023/04/30 09:04:30;;;;;;;0.45;0.45;;;11.60;99.90;;;;;;4424732;32;20082;-68
2023/04/30 09:06:58;;;;;;;0.40;0.40;;;11.60;99.90;;;;;;4411746;32;20090;-68
2023/04/30 09:09:28;;;;;;;6.70;1.75;;;11.80;99.90;;;;;;4423851;32;20073;-68
2023/04/30 09:12:13;;;;;;;0.88;0.88;;;12.10;99.90;;;;;;4424307;32;20085;-67
2023/04/30 09:14:39;;;;;;;5.07;1.77;;;12.40;99.90;;;;;;4424948;32;20101;-67
2023/04/30 09:17:05;;;;;;;16.25;0.80;;;12.50;99.90;;;;;;4423110;32;20076;-67
2023/04/30 09:19:31;;;;;;;0.88;0.88;;;12.30;99.90;;;;;;4422378;32;20157;-65
2023/04/30 09:21:57;;;;;;;1.30;0.50;;;12.40;99.90;;;;;;4421711;32;20422;-68
2023/04/30 09:24:23;;;;;;;0.35;0.35;;;12.30;99.90;;;;;;4412547;32;20142;-69
2023/04/30 09:26:49;;;;;;;0.43;0.43;;;12.30;99.90;;;;;;4410015;32;20146;-69
2023/04/30 09:29:15;;;;;;;0.40;0.40;;;12.30;99.90;;;;;;4410428;32;20136;-68
2023/04/30 09:31:44;;;;;;;2.75;1.20;;;12.30;99.90;;;;;;4420804;32;20066;-67
2023/04/30 09:34:10;;;;;;;0.52;0.50;;;12.50;99.90;;;;;;4409433;32;20100;-67
2023/04/30 09:36:35;;;;;;;8.57;1.02;;;12.90;99.90;;;;;;4423531;32;20072;-67
2023/04/30 09:39:10;;;;;;;0.30;0.30;;;13.10;99.90;;;;;;4422632;32;20198;-67
2023/04/30 09:41:36;;;;;;;0.60;0.60;;;13.10;99.50;;;;;;4422271;32;20505;-68
2023/04/30 09:44:02;;;;;;;0.62;0.62;;;12.90;99.80;;;;;;4425156;32;20078;-68
2023/04/30 09:46:30;;;;;;;0.40;0.40;;;12.90;99.10;;;;;;4423979;32;20493;-68
2023/04/30 09:48:58;;;;;;;0.30;0.30;;;12.80;98.70;;;;;;4421980;32;20545;-68
2023/04/30 09:51:24;;;;;;;0.30;0.30;;;13.00;98.80;;;;;;4408299;32;20089;-67
2023/04/30 09:53:50;;;;;;;32.92;0.82;;;13.20;98.40;;;;;;4409155;32;20085;-67
2023/04/30 09:56:21;;;;;;;0.30;0.30;;;13.40;98.10;;;;;;4410933;32;20077;-69
2023/04/30 09:58:50;;;;;;;0.40;0.40;;;13.70;97.40;;;;;;4410191;32;20081;-67
2023/04/30 10:01:17;;;;;;;0.40;0.40;;;13.80;97.00;;;;;;4423036;32;20073;-67
2023/04/30 10:03:42;;;;;;;3.00;1.33;;;13.80;96.80;;;;;;4412526;32;20089;-68
2023/04/30 10:06:11;;;;;;;2.15;0.77;;;14.10;97.70;;;;;;4396814;32;20061;-69
2023/04/30 10:08:41;;;;;;;2.90;1.27;;;14.30;95.90;;;;;;4424789;32;20086;-68
2023/04/30 10:11:07;;;;;;;4.53;1.25;;;14.20;96.90;;;;;;4422448;32;20061;-68
2023/04/30 10:13:41;;;;;;;0.40;0.40;;;14.20;95.90;;;;;;4425161;32;20065;-69
2023/04/30 10:16:17;;;;;;;0.40;0.40;;;13.90;95.70;;;;;;4424867;32;20529;-68
2023/04/30 10:18:45;;;;;;;5.45;1.80;;;14.40;95.30;;;;;;4410755;32;20084;-69
2023/04/30 10:21:13;;;;;;;0.40;0.40;;;14.70;95.00;;;;;;4412069;32;20085;-68
2023/04/30 10:23:42;;;;;;;6.55;1.42;;;14.40;95.40;;;;;;4409675;32;20116;-67
2023/04/30 10:26:11;;;;;;;0.40;0.40;;;14.40;94.60;;;;;;4422047;32;20125;-69
2023/04/30 10:28:37;;;;;;;0.50;0.50;;;14.60;95.30;;;;;;4425131;32;20124;-69
2023/04/30 10:31:04;;;;;;;0.57;0.57;;;14.80;93.70;;;;;;4408578;32;20086;-69
2023/04/30 10:33:41;;;;;;;1.00;0.80;;;14.50;93.80;;;;;;4406542;32;20570;-68
2023/04/30 10:36:12;;;;;;;0.40;0.40;;;14.40;93.40;;;;;;4422855;32;20125;-70
2023/04/30 10:38:38;;;;;;;0.73;0.73;;;14.80;94.50;;;;;;4423703;32;20840;-68
2023/04/30 10:41:06;;;;;;;0.60;0.60;;;15.10;93.40;;;;;;4421694;32;20073;-67
2023/04/30 10:43:34;;;;;;;2.08;0.80;;;14.80;93.20;;;;;;4425249;32;20076;-69
2023/04/30 10:46:01;;;;;;;0.40;0.40;;;15.30;94.80;;;;;;4410993;32;20069;-69
2023/04/30 10:48:29;;;;;;;0.75;0.70;;;15.50;93.30;;;;;;4424204;32;20138;-68
2023/04/30 10:50:57;;;;;;;1.42;0.80;;;15.70;91.70;;;;;;4424451;32;20474;-68
2023/04/30 10:53:25;;;;;;;0.40;0.40;;;16.00;91.80;;;;;;4408072;32;20065;-69
2023/04/30 10:55:59;;;;;;;0.40;0.40;;;16.10;89.60;;;;;;4409901;32;20089;-69
2023/04/30 10:58:29;;;;;;;0.40;0.40;;;16.00;91.10;;;;;;4423024;32;20200;-69
2023/04/30 11:01:16;;;;;;;0.70;0.60;;;15.90;91.20;;;;;;4409855;32;20057;-69
2023/04/30 11:04:02;;;;;;;1.55;0.82;;;16.30;91.20;;;;;;4411802;32;20151;-69
2023/04/30 11:06:49;;;;;;;0.88;0.88;;;16.40;90.30;;;;;;4410840;32;20149;-69
2023/04/30 11:09:15;;;;;;;0.60;0.60;;;16.90;91.00;;;;;;4422086;32;20608;-69
2023/04/30 11:11:43;;;;;;;0.62;0.62;;;17.20;90.10;;;;;;4422394;32;20438;-67
2023/04/30 11:14:10;;;;;;;0.55;0.55;;;17.40;85.70;;;;;;4422086;32;20085;-68
2023/04/30 11:16:36;;;;;;;0.45;0.45;;;17.30;86.50;;;;;;4421263;32;20101;-69
2023/04/30 11:19:10;;;;;;;0.50;0.50;;;17.40;85.00;;;;;;4408312;32;20073;-68
2023/04/30 11:22:04;;;;;;;0.30;0.30;;;17.10;85.40;;;;;;4423346;32;20816;-68
2023/04/30 11:24:54;;;;;;;1.87;0.50;;;17.20;87.70;;;;;;4412400;32;20098;-69
2023/04/30 11:27:24;;;;;;;0.40;0.40;;;17.30;85.80;;;;;;4412043;32;20093;-67
2023/04/30 11:29:52;;;;;;;0.47;0.47;;;17.60;82.30;;;;;;4423361;32;20427;-69
2023/04/30 11:32:19;;;;;;;0.40;0.40;;;17.90;81.10;;;;;;4422934;32;20437;-68
2023/04/30 11:34:45;;;;;;;1.08;0.85;;;17.70;84.00;;;;;;4410411;32;20097;-69
2023/04/30 11:37:13;;;;;;;0.40;0.40;;;17.90;85.30;;;;;;4422262;32;20489;-67
2023/04/30 11:39:40;;;;;;;0.40;0.40;;;18.10;81.80;;;;;;4392534;32;20073;-67
2023/04/30 11:42:07;;;;;;;0.50;0.50;;;18.50;82.90;;;;;;4406103;32;20078;-69
2023/04/30 11:44:32;;;;;;;0.37;0.37;;;18.60;80.30;;;;;;4406682;32;88797;-68
2023/04/30 11:46:59;;;;;;;1.35;0.50;;;18.80;80.40;;;;;;4421552;32;20093;-69
2023/04/30 11:49:25;;;;;;;0.40;0.40;;;18.90;78.50;;;;;;4422850;32;20392;-68
2023/04/30 11:51:52;;;;;;;0.40;0.40;;;18.90;79.40;;;;;;4395850;32;20073;-69
2023/04/30 11:54:17;;;;;;;0.25;0.25;;;18.90;79.30;;;;;;4421879;32;20395;-70
2023/04/30 11:56:47;;;;;;;0.20;0.20;;;19.10;78.50;;;;;;4407152;32;20085;-69
2023/04/30 11:59:14;;;;;;;0.47;0.47;;;19.00;78.30;;;;;;4408156;32;20069;-69
2023/04/30 12:01:40;;;;;;;1.80;0.62;;;19.40;78.40;;;;;;4395430;32;20085;-68
2023/04/30 12:04:07;;;;;;;4.95;0.43;;;19.50;76.60;;;;;;4409302;32;20098;-68
2023/04/30 12:06:33;;;;;;;0.47;0.37;;;20.10;75.90;;;;;;4408950;32;20151;-69
2023/04/30 12:09:02;;;;;;;0.30;0.30;;;20.60;72.20;;;;;;4409287;32;20124;-66
2023/04/30 12:11:29;;;;;;;0.47;0.47;;;20.60;71.00;;;;;;4421215;32;20178;-69
2023/04/30 12:14:02;;;;;;;0.28;0.28;;;20.80;68.40;;;;;;4425432;32;20109;-69
2023/04/30 12:16:38;;;;;;;0.43;0.43;;;20.60;68.90;;;;;;4424600;32;20101;-67
2023/04/30 12:19:03;;;;;;;0.62;0.50;;;20.70;64.30;;;;;;4411338;32;20082;-68
2023/04/30 12:21:29;;;;;;;0.45;0.40;;;20.60;67.50;;;;;;4423944;32;20060;-68
2023/04/30 12:23:54;;;;;;;0.30;0.30;;;21.10;66.20;;;;;;4424624;32;20080;-68
2023/04/30 12:26:20;;;;;;;0.37;0.37;;;20.80;65.90;;;;;;4424246;32;20069;-68
2023/04/30 12:28:48;;;;;;;0.30;0.25;;;20.40;66.70;;;;;;4423194;32;20070;-68
2023/04/30 12:31:13;;;;;;;0.30;0.30;;;20.80;65.80;;;;;;4424379;32;20109;-68
2023/04/30 12:33:39;;;;;;;0.22;0.22;;;20.80;66.40;;;;;;4424730;32;21241;-67
2023/04/30 12:36:09;;;;;;;0.17;0.17;;;20.80;65.40;;;;;;4420300;32;20073;-68
2023/04/30 12:38:35;;;;;;;0.20;0.20;;;20.50;67.50;;;;;;4423191;32;20117;-68
2023/04/30 12:41:03;;;;;;;0.10;0.10;;;21.00;65.40;;;;;;4408935;32;20098;-68
2023/04/30 12:43:29;;;;;;;0.20;0.20;;;20.90;68.40;;;;;;4423123;32;20124;-67
2023/04/30 12:45:56;;;;;;;0.20;0.20;;;20.70;66.70;;;;;;4406802;32;20116;-68
2023/04/30 12:48:23;;;;;;;1.85;0.45;;;21.20;66.80;;;;;;4421097;32;20081;-68
2023/04/30 12:51:05;;;;;;;0.20;0.20;;;21.60;65.50;;;;;;4423399;32;20359;-67
2023/04/30 12:53:31;;;;;;;0.13;0.13;;;21.80;65.00;;;;;;4421400;32;20094;-67